createdAt,value
2018-05-18T00:01:50.687Z,8.90
2018-05-18T00:04:16.711Z,8.90
2018-05-18T00:06:43.479Z,8.80
2018-05-18T00:09:09.515Z,8.80
2018-05-18T00:11:35.542Z,8.80
2018-05-18T00:14:01.601Z,8.80
2018-05-18T00:16:27.617Z,8.70
2018-05-18T00:18:53.633Z,8.70
2018-05-18T00:21:20.402Z,8.60
2018-05-18T00:23:46.431Z,8.60
2018-05-18T00:26:13.186Z,8.60
2018-05-18T00:28:40.006Z,8.60
2018-05-18T00:31:05.993Z,8.60
2018-05-18T00:33:32.024Z,8.60
2018-05-18T00:35:58.046Z,8.60
2018-05-18T00:38:24.806Z,8.50
2018-05-18T00:40:51.561Z,8.50
2018-05-18T00:43:17.575Z,8.50
2018-05-18T00:45:44.346Z,8.40
2018-05-18T00:48:11.105Z,8.40
2018-05-18T00:50:37.138Z,8.40
2018-05-18T00:53:03.164Z,8.40
2018-05-18T00:55:42.000Z,8.20
2018-05-18T00:58:08.754Z,8.20
2018-05-18T01:00:35.533Z,8.20
2018-05-18T01:03:01.550Z,8.20
2018-05-18T01:05:28.330Z,8.20
2018-05-18T01:07:54.349Z,8.10
2018-05-18T01:10:20.384Z,8.10
2018-05-18T01:12:46.397Z,8.10
2018-05-18T01:15:13.174Z,8.00
2018-05-18T01:17:39.203Z,8.00
2018-05-18T01:20:05.981Z,7.90
2018-05-18T01:22:32.001Z,7.90
2018-05-18T01:24:58.036Z,7.90
2018-05-18T01:27:24.238Z,7.80
2018-05-18T01:29:50.259Z,7.80
2018-05-18T01:32:16.282Z,7.80
2018-05-18T01:34:42.306Z,7.70
2018-05-18T01:37:08.333Z,7.70
2018-05-18T01:39:34.378Z,7.60
2018-05-18T01:42:00.410Z,7.60
2018-05-18T01:44:26.425Z,7.60
2018-05-18T01:46:52.454Z,7.60
2018-05-18T01:49:19.226Z,7.60
2018-05-18T01:51:45.245Z,7.50
2018-05-18T01:54:11.264Z,7.50
2018-05-18T01:56:38.007Z,7.50
2018-05-18T01:59:04.006Z,7.50
2018-05-18T02:01:30.001Z,7.50
2018-05-18T02:03:56.741Z,7.40
2018-05-18T02:06:23.481Z,7.40
2018-05-18T02:08:49.488Z,7.40
2018-05-18T02:11:15.489Z,7.40
2018-05-18T02:13:41.480Z,7.30
2018-05-18T02:16:07.478Z,7.30
2018-05-18T02:18:33.462Z,7.30
2018-05-18T02:20:59.457Z,7.30
2018-05-18T02:23:25.445Z,7.30
2018-05-18T02:25:52.189Z,7.20
2018-05-18T02:28:18.242Z,7.20
2018-05-18T02:30:45.007Z,7.20
2018-05-18T02:33:11.042Z,7.10
2018-05-18T02:35:37.066Z,7.20
2018-05-18T02:38:03.890Z,7.20
2018-05-18T02:40:29.925Z,7.20
2018-05-18T02:42:55.957Z,7.20
2018-05-18T02:45:22.019Z,7.10
2018-05-18T02:47:48.019Z,7.10
2018-05-18T02:50:14.042Z,7.10
2018-05-18T02:52:40.098Z,7.00
2018-05-18T02:55:06.123Z,7.00
2018-05-18T02:57:32.151Z,7.00
2018-05-18T02:59:58.172Z,7.00
2018-05-18T03:02:24.196Z,6.90
2018-05-18T03:04:50.226Z,6.90
2018-05-18T03:07:16.309Z,6.90
2018-05-18T03:09:42.321Z,6.90
2018-05-18T03:12:08.347Z,6.80
2018-05-18T03:14:34.392Z,6.80
2018-05-18T03:17:00.488Z,6.80
2018-05-18T03:19:26.414Z,6.70
2018-05-18T03:21:53.905Z,6.60
2018-05-18T03:24:20.654Z,6.50
2018-05-18T03:26:47.418Z,6.50
2018-05-18T03:29:13.425Z,6.40
2018-05-18T03:31:39.444Z,6.40
2018-05-18T03:34:05.466Z,6.30
2018-05-18T03:36:31.481Z,6.30
2018-05-18T03:38:57.496Z,6.30
2018-05-18T03:41:23.517Z,6.30
2018-05-18T03:43:50.321Z,6.20
2018-05-18T03:46:17.046Z,6.20
2018-05-18T03:48:43.068Z,6.20
2018-05-18T03:51:09.828Z,6.20
2018-05-18T03:53:35.917Z,6.20
2018-05-18T03:56:01.935Z,6.20
2018-05-18T03:58:27.959Z,6.30
2018-05-18T04:00:53.977Z,6.30
2018-05-18T04:03:32.354Z,6.30
2018-05-18T04:09:02.130Z,6.40
2018-05-18T04:11:28.146Z,6.40
2018-05-18T04:13:54.179Z,6.40
2018-05-18T04:16:20.224Z,6.40
2018-05-18T04:18:46.245Z,6.50
2018-05-18T04:21:12.259Z,6.60
2018-05-18T04:23:39.417Z,6.70
2018-05-18T04:26:05.429Z,6.70
2018-05-18T04:28:32.190Z,6.70
2018-05-18T04:30:58.938Z,6.80
2018-05-18T04:33:25.700Z,6.90
2018-05-18T04:35:51.714Z,6.80
2018-05-18T04:38:18.479Z,7.00
2018-05-18T04:40:45.240Z,7.10
2018-05-18T04:43:11.367Z,7.10
2018-05-18T04:45:37.297Z,7.20
2018-05-18T04:48:04.060Z,7.30
2018-05-18T04:50:30.820Z,7.50
2018-05-18T04:52:56.853Z,7.40
2018-05-18T04:55:23.610Z,7.70
2018-05-18T04:57:49.627Z,7.60
2018-05-18T05:00:16.395Z,7.80
2018-05-18T05:02:43.158Z,7.90
2018-05-18T05:05:09.186Z,7.90
2018-05-18T05:07:35.221Z,8.00
2018-05-18T05:10:02.010Z,8.20
2018-05-18T05:12:28.099Z,8.20
2018-05-18T05:14:54.128Z,8.30
2018-05-18T05:17:20.145Z,8.40
2018-05-18T05:19:46.181Z,8.50
2018-05-18T05:22:12.215Z,8.70
2018-05-18T05:24:38.242Z,8.80
2018-05-18T05:27:04.278Z,8.90
2018-05-18T05:29:30.322Z,9.00
2018-05-18T05:31:56.350Z,9.00
2018-05-18T05:34:22.381Z,9.10
2018-05-18T05:36:48.457Z,9.10
2018-05-18T05:39:14.456Z,9.20
2018-05-18T05:41:40.475Z,9.30
2018-05-18T05:44:06.500Z,9.30
2018-05-18T05:46:32.529Z,9.40
2018-05-18T05:48:58.574Z,9.50
2018-05-18T05:51:24.608Z,9.60
2018-05-18T05:53:50.638Z,9.60
2018-05-18T05:56:16.675Z,9.70
2018-05-18T05:58:42.754Z,9.80
2018-05-18T06:01:08.785Z,9.90
2018-05-18T06:03:34.821Z,10.00
2018-05-18T06:06:00.832Z,10.10
2018-05-18T06:08:26.859Z,10.20
2018-05-18T06:10:52.889Z,10.30
2018-05-18T06:13:18.918Z,10.40
2018-05-18T06:15:44.942Z,10.40
2018-05-18T06:18:11.693Z,10.20
2018-05-18T06:20:38.467Z,10.10
2018-05-18T06:23:04.493Z,10.10
2018-05-18T06:25:31.257Z,10.30
2018-05-18T06:27:57.310Z,10.30
2018-05-18T06:30:23.354Z,10.40
2018-05-18T06:32:49.371Z,10.60
2018-05-18T06:35:15.555Z,10.80
2018-05-18T06:37:41.423Z,11.00
2018-05-18T06:40:08.177Z,11.30
2018-05-18T06:42:34.950Z,11.30
2018-05-18T06:45:00.997Z,11.30
2018-05-18T06:47:27.013Z,11.50
2018-05-18T06:49:53.022Z,11.60
2018-05-18T06:52:19.787Z,11.90
2018-05-18T06:54:46.543Z,13.20
2018-05-18T06:57:13.298Z,15.00
2018-05-18T06:59:40.050Z,16.00
2018-05-18T07:02:06.073Z,16.00
2018-05-18T07:04:32.822Z,17.40
2018-05-18T07:06:58.865Z,17.40
2018-05-18T07:09:25.626Z,19.60
2018-05-18T07:11:52.379Z,19.60
2018-05-18T07:14:19.141Z,20.00
2018-05-18T07:16:45.241Z,20.00
2018-05-18T07:19:11.254Z,20.50
2018-05-18T07:21:37.283Z,21.20
2018-05-18T07:24:03.298Z,21.60
2018-05-18T07:26:29.346Z,21.40
2018-05-18T07:28:55.390Z,21.60
2018-05-18T07:31:39.901Z,22.30
2018-05-18T07:34:05.919Z,22.60
2018-05-18T07:36:31.931Z,23.00
2018-05-18T07:38:57.935Z,23.00
2018-05-18T07:41:23.941Z,23.30
2018-05-18T07:43:50.039Z,23.40
2018-05-18T07:46:16.054Z,22.20
2018-05-18T07:48:41.999Z,22.50
2018-05-18T07:51:07.996Z,22.30
2018-05-18T07:53:34.757Z,23.20
2018-05-18T07:56:00.750Z,23.10
2018-05-18T07:58:26.793Z,22.90
2018-05-18T08:00:52.793Z,23.10
2018-05-18T08:03:18.809Z,22.50
2018-05-18T08:05:44.816Z,22.90
2018-05-18T08:08:10.835Z,23.30
2018-05-18T08:10:36.850Z,23.30
2018-05-18T08:13:02.857Z,22.90
2018-05-18T08:15:28.869Z,23.10
2018-05-18T08:17:55.634Z,23.30
2018-05-18T08:20:22.429Z,23.50
2018-05-18T08:22:48.450Z,23.40
2018-05-18T08:25:14.463Z,23.60
2018-05-18T08:27:41.286Z,24.50
2018-05-18T08:30:07.244Z,24.50
2018-05-18T08:32:34.002Z,23.30
2018-05-18T08:35:00.756Z,21.60
2018-05-18T08:37:26.779Z,21.50
2018-05-18T08:39:53.516Z,19.50
2018-05-18T08:42:19.546Z,19.40
2018-05-18T08:44:45.545Z,18.30
2018-05-18T08:47:11.559Z,17.80
2018-05-18T08:49:38.330Z,16.80
2018-05-18T08:52:04.347Z,16.70
2018-05-18T08:54:30.353Z,16.50
2018-05-18T08:56:57.841Z,17.30
2018-05-18T08:59:24.606Z,19.70
2018-05-18T09:01:50.614Z,19.60
2018-05-18T09:04:17.392Z,23.10
2018-05-18T09:06:44.138Z,23.00
2018-05-18T09:09:10.893Z,22.10
2018-05-18T09:11:37.652Z,20.80
2018-05-18T09:14:03.661Z,20.70
2018-05-18T09:16:29.661Z,20.50
2018-05-18T09:18:55.677Z,20.80
2018-05-18T09:21:21.674Z,21.20
2018-05-18T09:23:47.677Z,21.10
2018-05-18T09:26:13.687Z,20.60
2018-05-18T09:28:39.692Z,19.40
2018-05-18T09:31:06.441Z,22.50
2018-05-18T09:33:33.226Z,24.40
2018-05-18T09:35:59.237Z,24.30
2018-05-18T09:38:25.986Z,25.60
2018-05-18T09:40:52.740Z,24.10
2018-05-18T09:43:19.502Z,22.90
2018-05-18T09:45:46.256Z,21.70
2018-05-18T09:48:12.269Z,21.60
2018-05-18T09:50:38.278Z,21.80
2018-05-18T09:53:04.300Z,21.00
2018-05-18T09:55:30.473Z,20.60
2018-05-18T09:57:56.321Z,19.70
2018-05-18T10:00:23.079Z,19.20
2018-05-18T10:02:49.842Z,20.20
2018-05-18T10:05:15.859Z,20.20
2018-05-18T10:07:42.618Z,23.80
2018-05-18T10:10:09.396Z,25.60
2018-05-18T10:12:35.398Z,25.60
2018-05-18T10:15:02.155Z,26.70
2018-05-18T10:17:28.898Z,25.90
2018-05-18T10:19:54.914Z,25.90
2018-05-18T10:22:20.919Z,25.80
2018-05-18T10:24:46.932Z,25.80
2018-05-18T10:27:12.939Z,25.80
2018-05-18T10:29:38.947Z,25.00
2018-05-18T10:32:04.963Z,25.00
2018-05-18T10:34:30.970Z,25.30
2018-05-18T10:36:57.717Z,26.00
2018-05-18T10:39:24.470Z,25.70
2018-05-18T10:41:51.210Z,25.80
2018-05-18T10:44:17.210Z,25.80
2018-05-18T10:46:43.263Z,26.30
2018-05-18T10:49:09.323Z,26.80
2018-05-18T10:51:36.153Z,26.80
2018-05-18T10:54:02.180Z,26.70
2018-05-18T10:56:28.192Z,26.30
2018-05-18T10:58:54.202Z,25.20
2018-05-18T11:01:20.950Z,26.50
2018-05-18T11:03:47.714Z,26.80
2018-05-18T11:06:13.747Z,26.70
2018-05-18T11:08:39.778Z,27.10
2018-05-18T11:11:06.545Z,27.30
2018-05-18T11:13:32.566Z,27.20
2018-05-18T11:15:59.337Z,27.30
2018-05-18T11:18:25.393Z,27.30
2018-05-18T11:20:51.439Z,27.40
2018-05-18T11:23:17.450Z,24.90
2018-05-18T11:25:43.484Z,23.30
2018-05-18T11:28:09.513Z,23.80
2018-05-18T11:30:35.534Z,24.80
2018-05-18T11:33:02.284Z,24.30
2018-05-18T11:35:29.050Z,24.60
2018-05-18T11:37:55.798Z,25.20
2018-05-18T11:40:22.567Z,25.60
2018-05-18T11:42:48.687Z,25.60
2018-05-18T11:45:15.437Z,24.80
2018-05-18T11:47:42.206Z,25.10
2018-05-18T11:50:08.235Z,25.10
2018-05-18T11:52:34.259Z,24.60
2018-05-18T11:55:01.062Z,25.30
2018-05-18T11:57:27.086Z,25.30
2018-05-18T11:59:53.103Z,25.90
2018-05-18T12:02:19.192Z,26.10
2018-05-18T12:04:45.232Z,26.20
2018-05-18T12:07:11.267Z,26.30
2018-05-18T12:09:37.281Z,26.20
2018-05-18T12:12:03.306Z,26.20
2018-05-18T12:14:29.336Z,25.60
2018-05-18T12:16:55.356Z,25.60
2018-05-18T12:19:21.417Z,25.60
2018-05-18T12:21:47.453Z,24.90
2018-05-18T12:24:13.467Z,24.70
2018-05-18T12:26:39.510Z,23.20
2018-05-18T12:29:05.555Z,23.90
2018-05-18T12:31:31.666Z,23.90
2018-05-18T12:33:57.603Z,24.00
2018-05-18T12:36:23.636Z,24.30
2018-05-18T12:38:50.402Z,24.90
2018-05-18T12:41:16.409Z,24.80
2018-05-18T12:43:42.433Z,25.00
2018-05-18T12:46:08.447Z,25.70
2018-05-18T12:48:34.938Z,25.50
2018-05-18T12:51:01.690Z,26.00
2018-05-18T12:53:28.475Z,26.40
2018-05-18T12:55:54.485Z,26.30
2018-05-18T12:58:21.245Z,26.60
2018-05-18T13:00:47.254Z,26.60
2018-05-18T13:03:13.270Z,25.80
2018-05-18T13:05:39.288Z,25.90
2018-05-18T13:08:05.389Z,26.00
2018-05-18T13:10:31.364Z,26.00
2018-05-18T13:12:57.373Z,26.00
2018-05-18T13:15:23.374Z,25.30
2018-05-18T13:17:49.393Z,23.90
2018-05-18T13:20:15.400Z,23.80
2018-05-18T13:22:41.413Z,24.60
2018-05-18T13:25:07.463Z,25.40
2018-05-18T13:27:33.451Z,25.50
2018-05-18T13:29:59.467Z,25.60
2018-05-18T13:32:25.486Z,26.30
2018-05-18T13:34:51.510Z,25.70
2018-05-18T13:37:17.520Z,26.00
2018-05-18T13:39:43.544Z,25.90
2018-05-18T13:42:10.304Z,25.30
2018-05-18T13:44:37.058Z,25.50
2018-05-18T13:47:03.073Z,25.40
2018-05-18T13:49:29.084Z,25.80
2018-05-18T13:51:55.085Z,25.60
2018-05-18T13:54:21.291Z,25.30
2018-05-18T13:56:48.043Z,25.20
2018-05-18T13:59:14.052Z,25.20
2018-05-18T14:01:40.068Z,25.20
2018-05-18T14:04:06.094Z,25.30
2018-05-18T14:06:32.120Z,24.80
2018-05-18T14:08:58.138Z,24.80
2018-05-18T14:11:24.892Z,24.80
2018-05-18T14:13:50.909Z,24.70
2018-05-18T14:16:17.657Z,24.00
2018-05-18T14:18:43.671Z,24.00
2018-05-18T14:21:09.687Z,23.80
2018-05-18T14:23:35.698Z,23.50
2018-05-18T14:26:01.720Z,22.70
2018-05-18T14:28:28.476Z,23.80
2018-05-18T14:30:54.487Z,23.70
2018-05-18T14:33:20.493Z,23.20
2018-05-18T14:35:46.536Z,23.30
2018-05-18T14:38:12.598Z,23.80
2018-05-18T14:40:38.559Z,23.40
2018-05-18T14:43:04.653Z,23.40
2018-05-18T14:45:31.343Z,24.00
2018-05-18T14:47:58.077Z,24.00
2018-05-18T14:50:24.086Z,24.00
2018-05-18T14:52:50.092Z,24.10
2018-05-18T14:55:16.112Z,23.70
2018-05-18T14:57:42.179Z,22.80
2018-05-18T15:00:08.138Z,23.10
2018-05-18T15:02:34.259Z,23.40
2018-05-18T15:05:00.278Z,23.50
2018-05-18T15:07:26.295Z,24.00
2018-05-18T15:09:52.318Z,24.40
2018-05-18T15:12:19.061Z,22.90
2018-05-18T15:14:45.825Z,22.40
2018-05-18T15:17:12.563Z,22.30
2018-05-18T15:19:39.382Z,22.30
2018-05-18T15:22:05.401Z,22.30
2018-05-18T15:24:31.408Z,22.20
2018-05-18T15:26:58.165Z,22.30
2018-05-18T15:29:24.209Z,22.30
2018-05-18T15:31:50.273Z,22.40
2018-05-18T15:34:16.281Z,22.40
2018-05-18T15:36:42.289Z,22.30
2018-05-18T15:39:09.062Z,22.70
2018-05-18T15:41:35.088Z,22.60
2018-05-18T15:44:01.838Z,22.40
2018-05-18T15:46:28.595Z,22.40
2018-05-18T15:48:55.573Z,22.10
2018-05-18T15:51:21.583Z,22.00
2018-05-18T15:53:48.325Z,21.60
2018-05-18T15:56:14.428Z,21.60
2018-05-18T15:58:40.434Z,22.10
2018-05-18T16:01:06.446Z,22.70
2018-05-18T16:03:33.198Z,22.10
2018-05-18T16:05:59.974Z,21.80
2018-05-18T16:08:26.001Z,21.80
2018-05-18T16:10:52.011Z,21.90
2018-05-18T16:13:18.022Z,21.80
2018-05-18T16:15:44.077Z,21.90
2018-05-18T16:18:10.077Z,22.50
2018-05-18T16:20:36.077Z,23.10
2018-05-18T16:23:02.838Z,22.60
2018-05-18T16:25:28.841Z,22.60
2018-05-18T16:27:54.886Z,22.40
2018-05-18T16:30:20.870Z,22.70
2018-05-18T16:32:46.922Z,23.20
2018-05-18T16:35:12.922Z,23.10
2018-05-18T16:37:38.948Z,22.60
2018-05-18T16:40:05.719Z,22.30
2018-05-18T16:42:32.072Z,22.30
2018-05-18T16:44:58.120Z,22.50
2018-05-18T16:47:24.430Z,22.60
2018-05-18T16:49:50.485Z,22.60
2018-05-18T16:52:16.790Z,22.70
2018-05-18T16:54:43.598Z,22.90
2018-05-18T16:57:09.634Z,22.80
2018-05-18T16:59:35.670Z,22.90
2018-05-18T17:02:01.751Z,23.20
2018-05-18T17:04:28.772Z,23.00
2018-05-18T17:06:54.934Z,23.00
2018-05-18T17:09:21.066Z,23.20
2018-05-18T17:11:47.097Z,23.00
2018-05-18T17:14:13.133Z,22.70
2018-05-18T17:16:39.189Z,22.60
2018-05-18T17:19:05.301Z,22.40
2018-05-18T17:21:31.321Z,21.90
2018-05-18T17:23:57.342Z,21.60
2018-05-18T17:26:23.354Z,21.00
2018-05-18T17:28:50.111Z,20.00
2018-05-18T17:31:16.869Z,19.60
2018-05-18T17:33:42.891Z,19.50
2018-05-18T17:36:09.833Z,18.70
2018-05-18T17:38:35.964Z,18.70
2018-05-18T17:41:02.090Z,18.40
2018-05-18T17:43:28.238Z,18.10
2018-05-18T17:45:54.381Z,17.90
2018-05-18T17:48:20.549Z,17.70
2018-05-18T17:50:47.366Z,17.30
2018-05-18T17:53:13.381Z,17.30
2018-05-18T17:55:39.401Z,17.20
2018-05-18T17:58:05.593Z,16.90
2018-05-18T18:00:31.674Z,16.80
2018-05-18T18:02:57.696Z,16.60
2018-05-18T18:05:23.852Z,16.40
2018-05-18T18:07:49.999Z,16.20
2018-05-18T18:10:16.269Z,16.00
2018-05-18T18:12:42.274Z,15.90
2018-05-18T18:15:08.287Z,15.70
2018-05-18T18:17:34.297Z,15.50
2018-05-18T18:20:01.045Z,15.20
2018-05-18T18:22:27.155Z,15.20
2018-05-18T18:24:53.184Z,15.10
2018-05-18T18:27:19.201Z,15.00
2018-05-18T18:29:45.446Z,14.80
2018-05-18T18:32:11.623Z,14.70
2018-05-18T18:34:37.650Z,14.60
2018-05-18T18:37:03.674Z,14.40
2018-05-18T18:39:29.778Z,14.30
2018-05-18T18:41:55.901Z,14.20
2018-05-18T18:44:22.866Z,13.90
2018-05-18T18:46:49.715Z,13.80
2018-05-18T18:49:16.487Z,13.70
2018-05-18T18:51:42.590Z,13.70
2018-05-18T18:54:08.654Z,13.60
2018-05-18T18:56:34.695Z,13.50
2018-05-18T18:59:00.703Z,13.50
2018-05-18T19:01:27.530Z,13.30
2018-05-18T19:03:53.590Z,13.30
2018-05-18T19:06:20.426Z,13.10
2018-05-18T19:08:46.458Z,13.10
2018-05-18T19:11:12.583Z,13.00
2018-05-18T19:13:38.614Z,13.00
2018-05-18T19:16:04.778Z,13.00
2018-05-18T19:18:31.088Z,12.90
2018-05-18T19:20:57.144Z,12.90
2018-05-18T19:23:23.159Z,12.80
2018-05-18T19:25:49.330Z,12.90
2018-05-18T19:28:15.710Z,12.80
2018-05-18T19:30:41.725Z,12.80
2018-05-18T19:33:07.735Z,12.60
2018-05-18T19:35:34.027Z,12.50
2018-05-18T19:38:00.025Z,12.40
2018-05-18T19:40:26.501Z,12.30
2018-05-18T19:42:53.490Z,12.20
2018-05-18T19:45:19.510Z,12.20
2018-05-18T19:47:45.517Z,12.10
2018-05-18T19:50:12.297Z,12.10
2018-05-18T19:52:38.351Z,12.00
2018-05-18T19:55:04.419Z,12.00
2018-05-18T19:57:30.450Z,11.90
2018-05-18T19:59:56.457Z,11.90
2018-05-18T20:02:22.538Z,11.90
2018-05-18T20:04:48.582Z,11.80
2018-05-18T20:07:14.566Z,11.80
2018-05-18T20:09:40.555Z,11.70
2018-05-18T20:12:06.515Z,11.60
2018-05-18T20:14:33.214Z,11.60
2018-05-18T20:16:59.182Z,11.50
2018-05-18T20:19:25.139Z,11.50
2018-05-18T20:21:51.852Z,11.40
2018-05-18T20:24:17.814Z,11.40
2018-05-18T20:26:44.598Z,11.30
2018-05-18T20:29:10.571Z,11.30
2018-05-18T20:31:36.543Z,11.30
2018-05-18T20:34:03.283Z,11.40
2018-05-18T20:36:29.258Z,11.30
2018-05-18T20:38:55.215Z,11.40
2018-05-18T20:41:21.238Z,11.40
2018-05-18T20:43:47.244Z,11.40
2018-05-18T20:46:13.242Z,11.30
2018-05-18T20:48:39.214Z,11.30
2018-05-18T20:51:05.196Z,11.30
2018-05-18T20:53:31.162Z,11.30
2018-05-18T20:55:57.122Z,11.30
2018-05-18T20:58:23.082Z,11.20
2018-05-18T21:00:49.055Z,11.20
2018-05-18T21:03:15.016Z,11.20
2018-05-18T21:05:41.742Z,11.20
2018-05-18T21:08:07.699Z,11.10
2018-05-18T21:10:34.486Z,11.10
2018-05-18T21:13:00.388Z,11.10
2018-05-18T21:15:27.082Z,11.00
2018-05-18T21:17:53.056Z,11.00
2018-05-18T21:20:19.032Z,11.00
2018-05-18T21:22:45.013Z,11.00
2018-05-18T21:25:10.984Z,10.90
2018-05-18T21:27:37.700Z,10.90
2018-05-18T21:30:03.672Z,10.90
2018-05-18T21:32:29.716Z,10.80
2018-05-18T21:34:55.720Z,10.80
2018-05-18T21:37:21.644Z,10.70
2018-05-18T21:39:47.608Z,10.60
2018-05-18T21:42:14.351Z,10.50
2018-05-18T21:44:41.090Z,10.50
2018-05-18T21:47:07.130Z,10.50
2018-05-18T21:49:33.025Z,10.40
2018-05-18T21:51:58.987Z,10.40
2018-05-18T21:54:25.710Z,10.30
2018-05-18T21:56:51.679Z,10.20
2018-05-18T21:59:17.726Z,10.20
2018-05-18T22:01:43.691Z,10.20
2018-05-18T22:04:09.650Z,10.20
2018-05-18T22:06:35.628Z,10.20
2018-05-18T22:09:01.595Z,10.20
2018-05-18T22:11:27.550Z,10.10
2018-05-18T22:13:53.524Z,10.10
2018-05-18T22:16:19.584Z,10.10
2018-05-18T22:18:46.579Z,10.10
2018-05-18T22:21:12.534Z,10.10
2018-05-18T22:23:38.508Z,10.10
2018-05-18T22:26:05.240Z,10.00
2018-05-18T22:28:31.216Z,10.00
2018-05-18T22:30:57.176Z,10.00
2018-05-18T22:33:23.155Z,10.00
2018-05-18T22:35:49.120Z,9.90
2018-05-18T22:38:15.087Z,9.80
2018-05-18T22:40:41.059Z,9.80
2018-05-18T22:43:07.775Z,9.60
2018-05-18T22:45:34.479Z,9.40
2018-05-18T22:48:00.460Z,9.40
2018-05-18T22:50:26.531Z,9.30
2018-05-18T22:52:52.495Z,9.20
2018-05-18T22:55:18.464Z,9.10
2018-05-18T22:57:44.422Z,9.00
2018-05-18T23:00:10.387Z,9.00
2018-05-18T23:02:37.117Z,8.90
2018-05-18T23:05:03.088Z,8.90
2018-05-18T23:07:29.068Z,8.90
2018-05-18T23:09:55.026Z,8.90
2018-05-18T23:12:20.970Z,8.90
2018-05-18T23:14:47.658Z,9.00
2018-05-18T23:17:13.610Z,8.90
2018-05-18T23:19:39.578Z,8.90
2018-05-18T23:22:05.531Z,8.90
2018-05-18T23:24:32.232Z,8.90
2018-05-18T23:26:58.179Z,8.90
2018-05-18T23:29:24.148Z,8.90
2018-05-18T23:31:50.871Z,8.90
2018-05-18T23:34:16.824Z,8.90
2018-05-18T23:36:43.515Z,9.00
2018-05-18T23:39:09.476Z,8.90
2018-05-18T23:41:35.423Z,9.00
2018-05-18T23:44:01.374Z,9.00
2018-05-18T23:46:27.327Z,9.10
2018-05-18T23:48:54.032Z,9.10
2018-05-18T23:51:19.991Z,9.10
2018-05-18T23:53:45.954Z,9.20
2018-05-18T23:56:12.634Z,9.30
2018-05-18T23:58:38.592Z,9.20
